Sacramento, California
Traffic Map
Current Weather Conditions
Sacramento, California
Clear
Clear
64°
Feels Like: 64°
Wind Chill: 64° Ceiling: Unl
Heat Index: 64° Visibility: 10mi
Dew Point: 54° Wind: 5mph
Humidity: 70% Direction: 110° (ESE)
Pressure: 29.89in Gusts: 0mph
Raw Report DataKSAC 280753Z AUTO 11004KT 10SM CLR 18/12 A2989 RMK AO2 SLP122 T01780122 403170111
Traffic Incident Summary
Active as of:
Severity:
Category:
InformationThere was an issue retrieving the traffic information for this location. Please try a different location or try again shortly.
Advertisements